createdAt,value
2022-08-11T00:01:17.364Z,43.16
2022-08-11T00:03:48.563Z,42.71
2022-08-11T00:06:27.116Z,42.54
2022-08-11T00:08:57.326Z,42.91
2022-08-11T00:11:35.619Z,42.47
2022-08-11T00:14:05.741Z,42.85
2022-08-11T00:16:35.280Z,43.16
2022-08-11T00:19:04.786Z,43.32
2022-08-11T00:22:04.345Z,42.88
2022-08-11T00:24:53.684Z,43.45
2022-08-11T00:27:34.069Z,42.70
2022-08-11T00:30:03.837Z,43.49
2022-08-11T00:32:33.237Z,43.64
2022-08-11T00:35:52.013Z,43.37
2022-08-11T00:37:57.635Z,43.48
2022-08-11T00:40:37.194Z,43.81
2022-08-11T00:43:21.067Z,43.24
2022-08-11T00:46:11.206Z,43.10
2022-08-11T00:48:51.839Z,43.56
2022-08-11T00:51:28.844Z,43.88
2022-08-11T00:54:37.216Z,43.83
2022-08-11T00:57:41.305Z,43.15
2022-08-11T01:00:23.536Z,43.96
2022-08-11T01:03:21.147Z,43.67
2022-08-11T01:06:08.103Z,43.86
2022-08-11T01:09:21.893Z,43.71
2022-08-11T01:12:28.172Z,44.12
2022-08-11T01:15:27.410Z,44.23
2022-08-11T01:18:32.920Z,44.12
2022-08-11T01:21:50.074Z,44.08
2022-08-11T01:25:00.637Z,44.29
2022-08-11T01:28:19.974Z,44.19
2022-08-11T01:31:26.813Z,44.37
2022-08-11T01:34:28.724Z,44.50
2022-08-11T01:37:42.415Z,44.41
2022-08-11T01:40:43.137Z,44.49
2022-08-11T01:44:12.873Z,44.47
2022-08-11T01:46:49.609Z,45.06
2022-08-11T01:50:05.146Z,45.01
2022-08-11T01:52:39.929Z,45.12
2022-08-11T01:55:19.859Z,44.88
2022-08-11T01:57:58.617Z,45.07
2022-08-11T02:00:31.061Z,45.52
2022-08-11T02:03:08.609Z,45.46
2022-08-11T02:06:01.632Z,45.36
2022-08-11T02:08:50.418Z,45.17
2022-08-11T02:11:35.499Z,45.42
2022-08-11T02:14:26.849Z,45.54
2022-08-11T02:17:07.297Z,45.65
2022-08-11T02:20:08.966Z,45.69
2022-08-11T02:23:02.368Z,45.97
2022-08-11T02:25:39.458Z,46.09
2022-08-11T02:28:29.159Z,45.96
2022-08-11T02:32:14.856Z,45.96
2022-08-11T02:34:22.193Z,46.32
2022-08-11T02:36:57.944Z,46.27
2022-08-11T02:39:41.060Z,46.31
2022-08-11T02:42:32.757Z,46.20
2022-08-11T02:45:20.048Z,46.34
2022-08-11T02:48:15.117Z,46.33
2022-08-11T02:50:56.062Z,46.33
2022-08-11T02:53:33.949Z,46.65
2022-08-11T02:56:09.008Z,46.50
2022-08-11T02:59:11.997Z,46.65
2022-08-11T03:01:50.806Z,46.47
2022-08-11T03:04:25.204Z,46.71
2022-08-11T03:07:28.669Z,46.69
2022-08-11T03:10:07.931Z,46.78
2022-08-11T03:13:03.900Z,46.87
2022-08-11T03:16:03.878Z,46.84
2022-08-11T03:18:40.853Z,46.69
2022-08-11T03:21:17.813Z,46.82
2022-08-11T03:23:57.498Z,47.21
2022-08-11T03:26:33.496Z,47.30
2022-08-11T03:29:10.470Z,47.34
2022-08-11T03:31:58.122Z,47.23
2022-08-11T03:34:29.195Z,47.23
2022-08-11T03:37:47.812Z,47.19
2022-08-11T03:40:49.246Z,47.13
2022-08-11T03:43:31.390Z,47.51
2022-08-11T03:46:10.252Z,47.63
2022-08-11T03:48:57.051Z,47.36
2022-08-11T03:51:44.798Z,47.60
2022-08-11T03:54:36.455Z,47.07
2022-08-11T03:57:41.348Z,47.48
2022-08-11T04:00:32.462Z,47.87
2022-08-11T04:03:34.504Z,47.79
2022-08-11T04:06:40.772Z,47.77
2022-08-11T04:09:46.518Z,47.65
2022-08-11T04:12:36.789Z,47.84
2022-08-11T04:15:55.654Z,48.04
2022-08-11T04:18:53.719Z,48.04
2022-08-11T04:22:04.513Z,48.07
2022-08-11T04:25:00.069Z,48.04
2022-08-11T04:28:02.255Z,48.05
2022-08-11T04:30:47.016Z,48.32
2022-08-11T04:33:56.544Z,48.17
2022-08-11T04:37:11.734Z,48.47
2022-08-11T04:39:50.783Z,48.62
2022-08-11T04:43:13.574Z,48.81
2022-08-11T04:46:15.093Z,48.70
2022-08-11T04:49:40.343Z,48.29
2022-08-11T04:52:50.269Z,48.88
2022-08-11T04:56:12.345Z,48.92
2022-08-11T04:59:11.389Z,48.96
2022-08-11T05:01:57.349Z,49.04
2022-08-11T05:05:12.592Z,48.84
2022-08-11T05:08:30.862Z,49.27
2022-08-11T05:11:13.312Z,49.52
2022-08-11T05:14:05.650Z,49.70
2022-08-11T05:17:00.596Z,50.82
2022-08-11T05:19:47.541Z,49.79
2022-08-11T05:22:38.197Z,50.13
2022-08-11T05:26:43.220Z,50.26
2022-08-11T05:28:47.310Z,50.29
2022-08-11T05:31:35.887Z,50.16
2022-08-11T05:34:28.839Z,50.06
2022-08-11T05:37:25.251Z,49.84
2022-08-11T05:40:18.982Z,49.71
2022-08-11T05:43:10.461Z,49.55
2022-08-11T05:46:02.758Z,49.80
2022-08-11T05:48:52.579Z,49.65
2022-08-11T05:51:38.780Z,49.74
2022-08-11T05:54:29.632Z,49.74
2022-08-11T05:57:02.196Z,49.73
2022-08-11T05:59:34.708Z,49.75
2022-08-11T06:02:04.764Z,49.86
2022-08-11T06:04:34.515Z,49.52
2022-08-11T06:07:04.114Z,49.57
2022-08-11T06:09:36.283Z,49.28
2022-08-11T06:12:08.558Z,49.38
2022-08-11T06:14:44.561Z,49.52
2022-08-11T06:17:13.846Z,49.90
2022-08-11T06:19:44.333Z,49.53
2022-08-11T06:22:13.610Z,50.08
2022-08-11T06:24:46.728Z,49.91
2022-08-11T06:27:21.415Z,49.16
2022-08-11T06:29:54.980Z,48.42
2022-08-11T06:32:27.066Z,48.26
2022-08-11T06:35:06.659Z,48.19
2022-08-11T06:37:46.751Z,48.24
2022-08-11T06:40:28.023Z,48.22
2022-08-11T06:43:03.198Z,48.05
2022-08-11T06:45:36.907Z,47.53
2022-08-11T06:48:06.671Z,46.88
2022-08-11T06:50:53.472Z,46.85
2022-08-11T06:53:22.275Z,46.50
2022-08-11T06:56:09.086Z,46.57
2022-08-11T06:58:59.358Z,45.75
2022-08-11T07:01:49.244Z,46.00
2022-08-11T07:04:25.528Z,45.79
2022-08-11T07:07:25.531Z,45.76
2022-08-11T07:10:31.412Z,46.17
2022-08-11T07:13:44.212Z,45.19
2022-08-11T07:16:12.152Z,45.04
2022-08-11T07:19:01.421Z,44.33
2022-08-11T07:22:03.776Z,44.08
2022-08-11T07:24:59.100Z,43.85
2022-08-11T07:27:55.796Z,43.42
2022-08-11T07:30:26.751Z,43.59
2022-08-11T07:32:59.750Z,42.81
2022-08-11T07:35:33.238Z,42.68
2022-08-11T07:38:07.269Z,42.94
2022-08-11T07:40:37.435Z,42.81
2022-08-11T07:43:07.675Z,42.46
2022-08-11T07:45:53.040Z,42.01
2022-08-11T07:48:40.561Z,41.13
2022-08-11T07:51:26.161Z,41.15
2022-08-11T07:54:03.142Z,42.71
2022-08-11T07:56:54.830Z,40.74
2022-08-11T08:00:00.046Z,39.91
2022-08-11T08:02:50.054Z,39.97
2022-08-11T08:05:38.655Z,40.30
2022-08-11T08:08:25.337Z,40.00
2022-08-11T08:11:11.418Z,39.33
2022-08-11T08:13:57.385Z,39.38
2022-08-11T08:16:43.465Z,39.38
2022-08-11T08:19:13.837Z,38.98
2022-08-11T08:21:45.480Z,37.35
2022-08-11T08:24:14.310Z,37.94
2022-08-11T08:27:03.760Z,38.93
2022-08-11T08:29:52.596Z,38.80
2022-08-11T08:32:22.237Z,38.61
2022-08-11T08:34:51.999Z,37.57
2022-08-11T08:37:45.805Z,37.65
2022-08-11T08:40:16.843Z,37.61
2022-08-11T08:42:51.765Z,37.26
2022-08-11T08:45:20.108Z,36.18
2022-08-11T08:47:53.710Z,37.27
2022-08-11T08:50:46.969Z,36.72
2022-08-11T08:53:22.013Z,36.24
2022-08-11T08:55:52.139Z,35.60
2022-08-11T08:58:23.339Z,36.67
2022-08-11T09:00:54.724Z,33.90
2022-08-11T09:04:07.323Z,35.02
2022-08-11T09:06:16.747Z,34.98
2022-08-11T09:08:49.694Z,34.24
2022-08-11T09:11:42.673Z,32.84
2022-08-11T09:14:15.119Z,33.78
2022-08-11T09:16:44.371Z,33.33
2022-08-11T09:19:17.993Z,31.56
2022-08-11T09:22:08.718Z,31.76
2022-08-11T09:24:57.321Z,31.35
2022-08-11T09:27:26.128Z,31.46
2022-08-11T09:29:54.931Z,30.68
2022-08-11T09:32:26.965Z,31.13
2022-08-11T09:34:55.774Z,30.30
2022-08-11T09:37:55.531Z,30.61
2022-08-11T09:40:33.895Z,30.26
2022-08-11T09:43:24.336Z,30.38
2022-08-11T09:45:54.122Z,30.33
2022-08-11T09:48:25.303Z,30.13
2022-08-11T09:50:56.142Z,30.31
2022-08-11T09:53:36.433Z,29.60
2022-08-11T09:56:29.868Z,29.12
2022-08-11T09:58:59.753Z,29.68
2022-08-11T10:01:32.556Z,30.25
2022-08-11T10:04:05.035Z,29.97
2022-08-11T10:06:53.998Z,29.37
2022-08-11T10:09:26.638Z,29.20
2022-08-11T10:11:59.280Z,28.72
2022-08-11T10:14:47.012Z,28.12
2022-08-11T10:17:17.316Z,27.35
2022-08-11T10:19:48.835Z,27.75
2022-08-11T10:22:52.450Z,28.24
2022-08-11T10:25:39.138Z,27.50
2022-08-11T10:28:33.014Z,27.25
2022-08-11T10:31:17.662Z,26.74
2022-08-11T10:34:03.842Z,27.50
2022-08-11T10:36:34.340Z,27.10
2022-08-11T10:39:05.543Z,28.37
2022-08-11T10:42:06.837Z,27.97
2022-08-11T10:44:43.344Z,27.71
2022-08-11T10:47:33.299Z,27.68
2022-08-11T10:50:22.487Z,26.61
2022-08-11T10:53:10.470Z,26.40
2022-08-11T10:55:58.541Z,27.13
2022-08-11T10:58:44.921Z,26.27
2022-08-11T11:01:16.197Z,26.66
2022-08-11T11:03:44.939Z,26.93
2022-08-11T11:06:28.713Z,27.52
2022-08-11T11:09:04.435Z,26.83
2022-08-11T11:11:55.726Z,26.50
2022-08-11T11:14:49.805Z,26.38
2022-08-11T11:17:45.308Z,25.86
2022-08-11T11:20:37.528Z,26.29
2022-08-11T11:23:10.264Z,26.62
2022-08-11T11:26:07.751Z,26.34
2022-08-11T11:29:08.350Z,26.73
2022-08-11T11:31:51.542Z,25.96
2022-08-11T11:34:52.993Z,25.95
2022-08-11T11:37:23.764Z,25.01
2022-08-11T11:39:53.204Z,27.00
2022-08-11T11:42:23.605Z,25.54
2022-08-11T11:44:55.800Z,24.83
2022-08-11T11:47:25.660Z,25.14
2022-08-11T11:49:56.858Z,24.88
2022-08-11T11:52:25.997Z,24.53
2022-08-11T11:55:00.570Z,23.51
2022-08-11T11:57:59.196Z,23.76
2022-08-11T12:00:45.503Z,24.23
2022-08-11T12:03:15.185Z,24.29
2022-08-11T12:05:46.201Z,23.75
2022-08-11T12:08:17.184Z,23.51
2022-08-11T12:10:49.555Z,23.40
2022-08-11T12:13:37.686Z,23.50
2022-08-11T12:16:33.191Z,24.12
2022-08-11T12:18:58.060Z,23.61
2022-08-11T12:21:29.625Z,24.14
2022-08-11T12:24:17.270Z,24.23
2022-08-11T12:27:15.935Z,24.65
2022-08-11T12:29:54.881Z,23.25
2022-08-11T12:32:25.671Z,23.42
2022-08-11T12:34:54.121Z,22.96
2022-08-11T12:37:30.400Z,22.99
2022-08-11T12:40:43.277Z,23.21
2022-08-11T12:43:45.248Z,22.76
2022-08-11T12:46:28.083Z,22.96
2022-08-11T12:49:16.444Z,23.03
2022-08-11T12:52:11.126Z,22.96
2022-08-11T12:54:59.084Z,21.93
2022-08-11T12:57:51.409Z,23.46
2022-08-11T13:00:39.213Z,23.12
2022-08-11T13:03:28.832Z,23.27
2022-08-11T13:05:59.913Z,22.73
2022-08-11T13:08:34.261Z,22.53
2022-08-11T13:11:22.224Z,22.77
2022-08-11T13:13:57.161Z,23.50
2022-08-11T13:16:29.336Z,23.41
2022-08-11T13:18:58.961Z,23.16
2022-08-11T13:21:28.475Z,22.80
2022-08-11T13:24:00.930Z,22.36
2022-08-11T13:26:43.566Z,22.21
2022-08-11T13:29:18.759Z,23.46
2022-08-11T13:31:47.800Z,22.95
2022-08-11T13:35:14.201Z,23.37
2022-08-11T13:38:17.828Z,23.56
2022-08-11T13:40:54.717Z,22.32
2022-08-11T13:43:26.095Z,23.03
2022-08-11T13:46:15.650Z,23.49
2022-08-11T13:48:44.332Z,23.01
2022-08-11T13:51:34.342Z,23.81
2022-08-11T13:54:06.306Z,23.15
2022-08-11T13:56:36.305Z,24.13
2022-08-11T13:59:06.310Z,24.37
2022-08-11T14:02:20.597Z,23.53
2022-08-11T14:04:33.703Z,23.35
2022-08-11T14:07:07.631Z,23.75
2022-08-11T14:09:39.550Z,23.64
2022-08-11T14:12:31.869Z,23.45
2022-08-11T14:15:09.193Z,22.77
2022-08-11T14:17:48.914Z,23.15
2022-08-11T14:20:38.997Z,23.48
2022-08-11T14:23:11.716Z,23.61
2022-08-11T14:26:05.122Z,23.30
2022-08-11T14:28:43.742Z,23.50
2022-08-11T14:31:18.325Z,23.13
2022-08-11T14:34:00.264Z,23.69
2022-08-11T14:36:35.861Z,23.27
2022-08-11T14:39:08.738Z,23.65
2022-08-11T14:42:11.398Z,23.02
2022-08-11T14:45:16.661Z,22.42
2022-08-11T14:47:52.057Z,22.37
2022-08-11T14:50:24.820Z,23.32
2022-08-11T14:52:57.723Z,23.32
2022-08-11T14:55:45.826Z,22.81
2022-08-11T14:58:22.085Z,22.79
2022-08-11T15:00:57.270Z,22.99
2022-08-11T15:03:31.552Z,22.89
2022-08-11T15:06:02.396Z,22.98
2022-08-11T15:08:51.717Z,23.34
2022-08-11T15:11:40.971Z,22.80
2022-08-11T15:14:13.678Z,23.00
2022-08-11T15:17:01.328Z,23.04
2022-08-11T15:19:40.094Z,22.58
2022-08-11T15:22:28.400Z,23.55
2022-08-11T15:24:57.248Z,23.34
2022-08-11T15:27:44.885Z,22.70
2022-08-11T15:30:33.179Z,23.26
2022-08-11T15:33:26.455Z,22.93
2022-08-11T15:36:17.554Z,22.50
2022-08-11T15:38:57.757Z,22.52
2022-08-11T15:41:58.872Z,22.78
2022-08-11T15:45:06.859Z,22.36
2022-08-11T15:47:48.862Z,23.41
2022-08-11T16:09:18.410Z,21.32
2022-08-11T16:11:49.840Z,21.56
2022-08-11T16:14:38.080Z,21.76
2022-08-11T16:17:09.895Z,21.51
2022-08-11T16:19:39.042Z,22.23
2022-08-11T16:22:11.325Z,22.46
2022-08-11T16:27:02.993Z,22.31
2022-08-11T16:27:41.848Z,21.60
2022-08-11T16:30:11.813Z,21.88
2022-08-11T16:32:43.133Z,21.51
2022-08-11T16:35:33.057Z,22.12
2022-08-11T16:38:22.258Z,22.08
2022-08-11T16:40:54.898Z,21.85
2022-08-11T16:43:44.341Z,22.09
2022-08-11T16:46:34.145Z,22.89
2022-08-11T16:49:04.384Z,21.17
2022-08-11T16:51:33.188Z,21.60
2022-08-11T16:54:05.935Z,21.52
2022-08-11T16:56:41.873Z,21.79
2022-08-11T16:59:19.402Z,22.17
2022-08-11T17:01:53.241Z,22.52
2022-08-11T17:04:47.373Z,22.42
2022-08-11T17:07:40.303Z,22.28
2022-08-11T17:10:51.847Z,23.07
2022-08-11T17:13:29.462Z,22.70
2022-08-11T17:16:13.046Z,22.75
2022-08-11T17:18:50.128Z,22.68
2022-08-11T17:21:21.569Z,22.88
2022-08-11T17:23:52.657Z,23.13
2022-08-11T17:26:28.653Z,22.88
2022-08-11T17:29:04.775Z,22.96
2022-08-11T17:31:50.260Z,23.01
2022-08-11T17:34:35.985Z,23.23
2022-08-11T17:37:05.863Z,23.06
2022-08-11T17:39:35.975Z,23.44
2022-08-11T17:42:22.305Z,23.29
2022-08-11T17:45:09.957Z,23.14
2022-08-11T17:47:56.991Z,23.45
2022-08-11T17:50:26.523Z,23.47
2022-08-11T17:53:12.249Z,23.81
2022-08-11T17:56:00.598Z,23.32
2022-08-11T17:58:47.162Z,23.88
2022-08-11T18:01:20.415Z,23.77
2022-08-11T18:03:57.565Z,23.93
2022-08-11T18:06:34.021Z,23.87
2022-08-11T18:09:24.248Z,24.57
2022-08-11T18:12:13.286Z,24.59
2022-08-11T18:15:03.146Z,25.24
2022-08-11T18:17:52.816Z,25.32
2022-08-11T18:20:40.218Z,25.37
2022-08-11T18:23:45.820Z,26.64
2022-08-11T18:26:39.444Z,27.56
2022-08-11T18:29:28.356Z,28.69
2022-08-11T18:32:20.802Z,28.65
2022-08-11T18:35:14.553Z,29.34
2022-08-11T18:38:08.803Z,29.48
2022-08-11T18:40:57.169Z,30.08
2022-08-11T18:43:49.019Z,30.16
2022-08-11T18:46:40.967Z,30.30
2022-08-11T18:50:02.569Z,30.23
2022-08-11T18:52:49.483Z,30.51
2022-08-11T19:11:11.938Z,31.71
2022-08-11T19:13:59.219Z,32.03
2022-08-11T19:16:45.424Z,31.65
2022-08-11T19:19:34.388Z,32.49
2022-08-11T19:22:21.543Z,32.52
2022-08-11T19:25:10.267Z,32.73
2022-08-11T19:27:58.997Z,32.80
2022-08-11T19:30:45.552Z,32.89
2022-08-11T19:33:59.744Z,32.27
2022-08-11T19:36:37.757Z,32.58
2022-08-11T19:39:24.015Z,32.75
2022-08-11T19:42:09.922Z,33.29
2022-08-11T19:44:57.683Z,32.99
2022-08-11T19:47:44.126Z,33.67
2022-08-11T19:50:31.170Z,32.92
2022-08-11T19:53:21.098Z,33.39
2022-08-11T19:56:09.212Z,33.63
2022-08-11T19:58:56.740Z,34.42
2022-08-11T20:02:12.941Z,33.96
2022-08-11T20:04:51.008Z,34.51
2022-08-11T20:07:37.907Z,34.29
2022-08-11T20:10:25.663Z,34.39
2022-08-11T20:13:13.310Z,34.75
2022-08-11T20:16:07.434Z,33.25
2022-08-11T20:18:55.790Z,34.87
2022-08-11T20:21:43.073Z,34.90
2022-08-11T20:24:30.243Z,35.58
2022-08-11T20:27:24.116Z,35.48
2022-08-11T20:30:11.400Z,35.21
2022-08-11T20:33:00.246Z,35.54
2022-08-11T20:35:48.126Z,35.77
2022-08-11T20:38:34.810Z,35.49
2022-08-11T20:41:21.734Z,35.49
2022-08-11T20:44:09.812Z,36.08
2022-08-11T20:46:57.523Z,36.50
2022-08-11T20:49:53.606Z,35.92
2022-08-11T20:52:48.073Z,35.63
2022-08-11T20:55:51.382Z,35.87
2022-08-11T21:01:47.249Z,36.29
2022-08-11T21:04:38.157Z,36.16
2022-08-11T21:07:42.412Z,36.40
2022-08-11T21:10:31.114Z,36.32
2022-08-11T21:13:26.843Z,36.54
2022-08-11T21:16:25.464Z,36.55
2022-08-11T21:19:16.004Z,36.81
2022-08-11T21:22:03.892Z,36.93
2022-08-11T21:24:52.612Z,36.66
2022-08-11T21:27:42.534Z,36.99
2022-08-11T21:30:28.982Z,37.11
2022-08-11T21:33:15.177Z,36.99
2022-08-11T21:36:01.855Z,36.98
2022-08-11T21:38:47.704Z,37.34
2022-08-11T21:41:35.590Z,37.00
2022-08-11T21:44:25.024Z,36.77
2022-08-11T21:47:12.307Z,37.05
2022-08-11T21:49:59.364Z,37.21
2022-08-11T21:52:46.152Z,37.22
2022-08-11T21:55:33.672Z,37.32
2022-08-11T21:58:21.604Z,37.64
2022-08-11T22:01:08.537Z,37.70
2022-08-11T22:03:54.800Z,37.76
2022-08-11T22:06:40.883Z,37.66
2022-08-11T22:09:26.724Z,37.33
2022-08-11T22:12:34.082Z,37.41
2022-08-11T22:15:20.012Z,37.35
2022-08-11T22:18:06.816Z,37.71
2022-08-11T22:20:53.614Z,37.69
2022-08-11T22:23:40.419Z,37.93
2022-08-11T22:26:26.499Z,37.78
2022-08-11T22:29:12.107Z,37.63
2022-08-11T22:31:59.514Z,38.63
2022-08-11T22:34:53.470Z,38.33
2022-08-11T22:37:40.793Z,38.34
2022-08-11T22:40:29.632Z,38.36
2022-08-11T22:43:15.715Z,38.20
2022-08-11T22:46:01.199Z,38.13
2022-08-11T22:48:49.200Z,38.12
2022-08-11T22:51:38.645Z,38.84
2022-08-11T22:54:26.283Z,38.59
2022-08-11T22:57:12.263Z,38.83
2022-08-11T22:59:58.691Z,38.39
2022-08-11T23:02:46.573Z,38.69
2022-08-11T23:05:33.495Z,39.02
2022-08-11T23:08:22.104Z,38.77
2022-08-11T23:11:09.259Z,39.09
2022-08-11T23:13:54.744Z,38.82
2022-08-11T23:16:41.065Z,39.00
2022-08-11T23:20:07.827Z,38.86
2022-08-11T23:22:49.057Z,39.58
2022-08-11T23:25:37.469Z,39.57
2022-08-11T23:28:25.121Z,39.31
2022-08-11T23:31:12.875Z,39.43
2022-08-11T23:34:00.879Z,39.78
2022-08-11T23:36:47.816Z,39.56
2022-08-11T23:39:33.930Z,40.00
2022-08-11T23:42:20.807Z,40.27
2022-08-11T23:45:09.572Z,40.07
2022-08-11T23:47:57.548Z,40.09
2022-08-11T23:50:43.993Z,40.14
2022-08-11T23:53:31.038Z,40.54
2022-08-11T23:56:16.616Z,40.16
2022-08-11T23:59:04.145Z,40.17
